createdAt,value
2022-10-22T00:02:07.860Z,12.60
2022-10-22T00:04:35.628Z,12.61
2022-10-22T00:07:06.334Z,12.60
2022-10-22T00:09:39.065Z,12.59
2022-10-22T00:12:15.375Z,12.58
2022-10-22T00:14:49.393Z,12.56
2022-10-22T00:17:19.752Z,12.51
2022-10-22T00:20:11.487Z,12.48
2022-10-22T00:22:45.119Z,12.47
2022-10-22T00:25:24.926Z,12.44
2022-10-22T00:27:51.343Z,12.42
2022-10-22T00:30:17.857Z,12.39
2022-10-22T00:32:44.382Z,12.36
2022-10-22T00:35:21.060Z,12.33
2022-10-22T00:37:55.680Z,12.31
2022-10-22T00:40:22.065Z,12.29
2022-10-22T00:42:48.538Z,12.29
2022-10-22T00:45:23.541Z,12.28
2022-10-22T00:48:10.489Z,12.31
2022-10-22T00:50:48.537Z,12.32
2022-10-22T00:53:36.654Z,12.34
2022-10-22T00:56:03.899Z,12.35
2022-10-22T00:58:35.038Z,12.35
2022-10-22T01:01:02.135Z,12.38
2022-10-22T01:03:41.019Z,12.42
2022-10-22T01:06:07.881Z,12.43
2022-10-22T01:08:55.975Z,12.44
2022-10-22T01:11:52.598Z,12.46
2022-10-22T01:14:42.796Z,12.47
2022-10-22T01:17:39.872Z,12.49
2022-10-22T01:20:34.053Z,12.48
2022-10-22T01:23:17.311Z,12.48
2022-10-22T01:25:54.025Z,12.47
2022-10-22T01:28:44.100Z,12.49
2022-10-22T01:31:16.441Z,12.50
2022-10-22T01:33:45.959Z,12.51
2022-10-22T01:36:19.899Z,12.51
2022-10-22T01:38:49.621Z,12.52
2022-10-22T01:41:16.272Z,12.51
2022-10-22T01:43:50.937Z,12.54
2022-10-22T01:46:19.174Z,12.52
2022-10-22T01:49:05.918Z,12.54
2022-10-22T01:52:18.686Z,12.51
2022-10-22T01:55:05.369Z,12.51
2022-10-22T01:58:17.981Z,12.51
2022-10-22T02:01:16.402Z,12.49
2022-10-22T02:03:52.850Z,12.47
2022-10-22T02:06:22.393Z,12.47
2022-10-22T02:08:53.110Z,12.44
2022-10-22T02:11:32.959Z,12.43
2022-10-22T02:14:04.354Z,12.39
2022-10-22T02:16:35.922Z,12.39
2022-10-22T02:19:11.356Z,12.40
2022-10-22T02:21:37.865Z,12.36
2022-10-22T02:24:04.713Z,12.36
2022-10-22T02:27:12.151Z,12.35
2022-10-22T02:29:47.401Z,12.33
2022-10-22T02:32:19.661Z,12.32
2022-10-22T02:34:48.003Z,12.30
2022-10-22T02:37:17.267Z,12.26
2022-10-22T02:39:44.493Z,12.24
2022-10-22T02:42:29.547Z,12.23
2022-10-22T02:44:57.105Z,12.23
2022-10-22T02:47:25.644Z,12.21
2022-10-22T02:49:51.989Z,12.19
2022-10-22T02:52:22.566Z,12.18
2022-10-22T02:55:15.934Z,12.19
2022-10-22T02:58:08.605Z,12.17
2022-10-22T03:00:42.418Z,12.17
2022-10-22T03:03:08.818Z,12.16
2022-10-22T03:05:35.448Z,12.14
2022-10-22T03:08:01.900Z,12.14
2022-10-22T03:10:28.275Z,12.14
2022-10-22T03:12:54.647Z,12.13
2022-10-22T03:15:21.013Z,12.10
2022-10-22T03:17:47.457Z,12.12
2022-10-22T03:20:19.011Z,12.12
2022-10-22T03:22:47.656Z,12.12
2022-10-22T03:25:22.462Z,12.13
2022-10-22T03:27:51.897Z,12.09
2022-10-22T03:30:18.655Z,12.08
2022-10-22T03:32:45.093Z,12.08
2022-10-22T03:35:26.517Z,12.06
2022-10-22T03:38:01.206Z,12.05
2022-10-22T03:40:27.653Z,12.05
2022-10-22T03:42:54.008Z,12.04
2022-10-22T03:45:30.566Z,12.04
2022-10-22T03:47:56.959Z,12.06
2022-10-22T03:50:23.340Z,12.09
2022-10-22T03:53:07.189Z,12.13
2022-10-22T03:55:34.637Z,12.16
2022-10-22T03:58:05.388Z,12.17
2022-10-22T04:00:52.228Z,12.19
2022-10-22T04:03:44.680Z,12.21
2022-10-22T04:06:12.911Z,12.20
2022-10-22T04:08:40.894Z,12.21
2022-10-22T04:11:39.375Z,12.23
2022-10-22T04:14:12.976Z,12.26
2022-10-22T04:16:40.636Z,12.25
2022-10-22T04:19:07.482Z,12.24
2022-10-22T04:21:34.266Z,12.25
2022-10-22T04:24:00.702Z,12.21
2022-10-22T04:26:28.168Z,12.22
2022-10-22T04:28:54.543Z,12.21
2022-10-22T04:31:23.649Z,12.21
2022-10-22T04:33:58.660Z,12.20
2022-10-22T04:36:25.801Z,12.19
2022-10-22T04:39:11.532Z,12.19
2022-10-22T04:42:01.915Z,12.20
2022-10-22T04:45:10.917Z,12.20
2022-10-22T04:47:43.798Z,12.21
2022-10-22T04:50:10.304Z,12.22
2022-10-22T04:52:36.657Z,12.23
2022-10-22T04:55:04.687Z,12.24
2022-10-22T04:57:40.494Z,12.24
2022-10-22T05:00:11.645Z,12.24
2022-10-22T05:02:38.117Z,12.24
2022-10-22T05:05:29.490Z,12.25
2022-10-22T05:07:56.928Z,12.24
2022-10-22T05:10:39.685Z,12.25
2022-10-22T05:13:22.312Z,12.23
2022-10-22T05:15:51.997Z,12.26
2022-10-22T05:18:21.761Z,12.25
2022-10-22T05:20:49.079Z,12.23
2022-10-22T05:23:15.448Z,12.23
2022-10-22T05:25:41.812Z,12.22
2022-10-22T05:28:08.267Z,12.21
2022-10-22T05:30:35.393Z,12.21
2022-10-22T05:33:01.741Z,12.20
2022-10-22T05:35:28.099Z,12.20
2022-10-22T05:40:30.640Z,12.15
2022-10-22T05:43:03.765Z,12.14
2022-10-22T05:45:30.201Z,12.13
2022-10-22T05:48:00.552Z,12.09
2022-10-22T05:50:28.095Z,12.12
2022-10-22T05:53:06.016Z,12.09
2022-10-22T05:55:38.857Z,12.08
2022-10-22T05:58:07.265Z,12.08
2022-10-22T06:00:53.037Z,12.07
2022-10-22T06:03:19.369Z,12.07
2022-10-22T06:05:45.853Z,12.07
2022-10-22T06:08:18.236Z,12.08
2022-10-22T06:10:52.490Z,12.08
2022-10-22T06:13:32.752Z,12.10
2022-10-22T06:15:59.122Z,12.09
2022-10-22T06:18:25.519Z,12.10
2022-10-22T06:20:51.893Z,12.10
2022-10-22T06:23:18.361Z,12.08
2022-10-22T06:25:56.577Z,12.07
2022-10-22T06:31:04.848Z,12.08
2022-10-22T06:33:45.285Z,12.07
2022-10-22T06:36:18.069Z,12.06
2022-10-22T06:38:44.609Z,12.05
2022-10-22T06:41:28.812Z,12.05
2022-10-22T06:43:57.363Z,12.06
2022-10-22T06:46:25.051Z,12.08
2022-10-22T06:48:53.888Z,12.09
2022-10-22T06:51:21.211Z,12.09
2022-10-22T06:53:54.345Z,12.10
2022-10-22T06:56:28.669Z,12.11
2022-10-22T06:59:25.835Z,12.13
2022-10-22T07:01:57.376Z,12.15
2022-10-22T07:04:23.837Z,12.17
2022-10-22T07:06:51.381Z,12.18
2022-10-22T07:11:45.969Z,12.23
2022-10-22T07:14:23.011Z,12.26
2022-10-22T07:16:50.404Z,12.30
2022-10-22T07:19:16.768Z,12.32
2022-10-22T07:21:43.140Z,12.36
2022-10-22T07:24:13.695Z,12.39
2022-10-22T07:26:42.131Z,12.43
2022-10-22T07:29:09.669Z,12.45
2022-10-22T07:31:36.299Z,12.48
2022-10-22T07:34:07.052Z,12.50
2022-10-22T07:36:39.571Z,12.55
2022-10-22T07:39:05.940Z,12.58
2022-10-22T07:41:40.389Z,12.64
2022-10-22T07:44:11.916Z,12.67
2022-10-22T07:46:38.543Z,12.72
2022-10-22T07:49:17.584Z,12.74
2022-10-22T07:51:49.645Z,12.80
2022-10-22T07:54:17.263Z,12.90
2022-10-22T07:56:46.965Z,12.98
2022-10-22T07:59:13.417Z,13.02
2022-10-22T08:04:26.413Z,13.09
2022-10-22T08:13:35.218Z,13.21
2022-10-22T08:16:01.778Z,13.25
2022-10-22T08:18:29.905Z,13.28
2022-10-22T08:20:57.683Z,13.31
2022-10-22T08:23:32.106Z,13.36
2022-10-22T08:26:02.947Z,13.39
2022-10-22T08:28:46.696Z,13.42
2022-10-22T08:31:25.265Z,13.45
2022-10-22T08:34:02.784Z,13.47
2022-10-22T08:36:29.202Z,13.49
2022-10-22T08:38:55.674Z,13.50
2022-10-22T08:41:30.545Z,13.55
2022-10-22T08:44:16.860Z,13.57
2022-10-22T08:47:02.614Z,13.60
2022-10-22T08:49:37.186Z,13.63
2022-10-22T08:52:22.903Z,13.65
2022-10-22T08:54:54.532Z,13.68
2022-10-22T08:57:55.095Z,13.68
2022-10-22T09:00:29.408Z,13.70
2022-10-22T09:03:14.763Z,13.73
2022-10-22T09:06:16.232Z,13.72
2022-10-22T09:08:44.113Z,13.73
2022-10-22T09:11:13.686Z,13.76
2022-10-22T09:13:42.318Z,13.76
2022-10-22T09:16:43.042Z,13.78
2022-10-22T09:19:24.093Z,13.83
2022-10-22T09:22:25.161Z,13.87
2022-10-22T09:25:44.998Z,13.92
2022-10-22T09:28:11.611Z,13.96
2022-10-22T09:30:39.950Z,14.02
2022-10-22T09:33:22.623Z,14.06
2022-10-22T09:36:15.683Z,14.11
2022-10-22T09:38:52.496Z,14.20
2022-10-22T09:41:31.596Z,14.27
2022-10-22T09:46:48.903Z,14.37
2022-10-22T09:49:37.009Z,14.40
2022-10-22T10:06:59.749Z,14.67
2022-10-22T10:09:28.111Z,14.70
2022-10-22T10:12:18.912Z,14.68
2022-10-22T10:14:54.405Z,14.67
2022-10-22T10:17:36.473Z,14.70
2022-10-22T10:20:32.256Z,14.76
2022-10-22T10:23:08.375Z,14.79
2022-10-22T10:26:09.642Z,14.86
2022-10-22T10:28:46.296Z,14.91
2022-10-22T10:31:27.793Z,14.97
2022-10-22T10:34:04.643Z,15.00
2022-10-22T10:36:48.702Z,15.02
2022-10-22T10:39:21.258Z,15.08
2022-10-22T10:42:32.776Z,15.11
2022-10-22T10:45:20.995Z,15.16
2022-10-22T10:48:26.695Z,15.19
2022-10-22T10:51:26.354Z,15.21
2022-10-22T10:54:29.343Z,15.21
2022-10-22T10:57:50.985Z,15.25
2022-10-22T11:00:20.118Z,15.22
2022-10-22T11:03:15.468Z,15.20
2022-10-22T11:05:50.303Z,15.22
2022-10-22T11:08:42.072Z,15.22
2022-10-22T11:11:40.709Z,15.22
2022-10-22T11:14:44.695Z,15.19
2022-10-22T11:17:15.952Z,15.16
2022-10-22T11:19:52.978Z,15.18
2022-10-22T11:22:29.438Z,15.20
2022-10-22T11:25:20.344Z,15.23
2022-10-22T11:28:07.821Z,15.28
2022-10-22T11:30:37.014Z,15.26
2022-10-22T11:33:11.678Z,15.27
2022-10-22T11:35:44.968Z,15.25
2022-10-22T11:38:21.045Z,15.26
2022-10-22T11:40:58.917Z,15.27
2022-10-22T11:44:11.314Z,15.30
2022-10-22T11:46:46.725Z,15.32
2022-10-22T11:49:13.098Z,15.34
2022-10-22T11:51:42.426Z,15.34
2022-10-22T11:54:46.046Z,15.30
2022-10-22T11:57:26.317Z,15.27
2022-10-22T12:00:01.004Z,15.20
2022-10-22T12:03:08.346Z,15.17
2022-10-22T12:05:35.375Z,15.14
2022-10-22T12:08:23.595Z,15.13
2022-10-22T12:11:03.215Z,15.14
2022-10-22T12:13:58.668Z,15.18
2022-10-22T12:16:55.181Z,15.23
2022-10-22T12:19:44.666Z,15.22
2022-10-22T12:22:19.536Z,15.22
2022-10-22T12:25:00.940Z,15.18
2022-10-22T12:27:41.631Z,15.16
2022-10-22T12:30:31.048Z,15.14
2022-10-22T12:33:03.029Z,15.14
2022-10-22T12:35:46.838Z,15.14
2022-10-22T12:38:20.349Z,15.16
2022-10-22T12:41:10.034Z,15.18
2022-10-22T12:43:39.623Z,15.22
2022-10-22T12:46:14.357Z,15.28
2022-10-22T12:48:44.499Z,15.37
2022-10-22T12:51:49.349Z,15.44
2022-10-22T12:54:45.899Z,15.49
2022-10-22T12:58:01.429Z,15.47
2022-10-22T13:00:54.476Z,15.50
2022-10-22T13:03:29.279Z,15.52
2022-10-22T13:06:22.912Z,15.57
2022-10-22T13:09:58.165Z,15.56
2022-10-22T13:12:56.316Z,15.54
2022-10-22T13:19:07.987Z,15.61
2022-10-22T13:21:55.337Z,15.73
2022-10-22T13:25:28.692Z,15.76
2022-10-22T13:29:17.209Z,15.88
2022-10-22T13:36:03.725Z,15.83
2022-10-22T13:46:45.949Z,15.83
2022-10-22T13:52:23.744Z,15.70
2022-10-22T13:54:57.721Z,15.67
2022-10-22T13:57:26.072Z,15.60
2022-10-22T13:59:52.638Z,15.54
2022-10-22T14:02:22.845Z,15.51
2022-10-22T14:04:49.533Z,15.45
2022-10-22T14:07:16.846Z,15.40
2022-10-22T14:10:24.210Z,15.39
2022-10-22T14:12:53.677Z,15.37
2022-10-22T14:15:45.962Z,15.39
2022-10-22T14:18:24.220Z,15.41
2022-10-22T14:20:54.298Z,15.40
2022-10-22T14:23:23.086Z,15.38
2022-10-22T14:25:52.522Z,15.38
2022-10-22T14:28:19.649Z,15.39
2022-10-22T14:30:46.897Z,15.40
2022-10-22T14:33:32.186Z,15.41
2022-10-22T14:36:00.454Z,15.41
2022-10-22T14:38:27.370Z,15.38
2022-10-22T14:40:54.856Z,15.36
2022-10-22T14:43:27.322Z,15.33
2022-10-22T14:45:54.618Z,15.35
2022-10-22T14:48:21.557Z,15.33
2022-10-22T14:50:48.453Z,15.35
2022-10-22T14:53:18.983Z,15.35
2022-10-22T14:55:47.582Z,15.34
2022-10-22T14:58:17.260Z,15.33
2022-10-22T15:00:44.210Z,15.33
2022-10-22T15:03:11.534Z,15.32
2022-10-22T15:05:53.931Z,15.32
2022-10-22T15:08:21.293Z,15.32
2022-10-22T15:11:01.535Z,15.31
2022-10-22T15:13:29.613Z,15.27
2022-10-22T15:15:57.149Z,15.23
2022-10-22T15:18:23.835Z,15.20
2022-10-22T15:21:02.805Z,15.16
2022-10-22T15:23:32.093Z,15.15
2022-10-22T15:25:59.081Z,15.14
2022-10-22T15:28:29.547Z,15.12
2022-10-22T15:30:59.191Z,15.08
2022-10-22T15:33:26.898Z,15.06
2022-10-22T15:35:53.719Z,15.01
2022-10-22T15:38:20.928Z,15.00
2022-10-22T15:40:47.876Z,14.97
2022-10-22T15:43:14.571Z,14.92
2022-10-22T15:45:41.270Z,14.89
2022-10-22T15:48:07.812Z,14.86
2022-10-22T15:50:38.742Z,14.82
2022-10-22T15:53:05.366Z,14.78
2022-10-22T15:55:31.790Z,14.73
2022-10-22T15:58:00.633Z,14.69
2022-10-22T16:00:30.133Z,14.64
2022-10-22T16:02:56.750Z,14.57
2022-10-22T16:05:23.378Z,14.51
2022-10-22T16:07:59.233Z,14.46
2022-10-22T16:10:26.065Z,14.39
2022-10-22T16:12:54.639Z,14.35
2022-10-22T16:15:22.219Z,14.30
2022-10-22T16:17:48.729Z,14.25
2022-10-22T16:20:17.471Z,14.20
2022-10-22T16:22:44.245Z,14.13
2022-10-22T16:25:15.028Z,14.06
2022-10-22T16:27:56.225Z,14.00
2022-10-22T16:30:24.855Z,13.95
2022-10-22T16:32:52.896Z,13.91
2022-10-22T16:35:20.731Z,13.85
2022-10-22T16:38:03.871Z,13.80
2022-10-22T16:40:42.234Z,13.75
2022-10-22T16:43:21.981Z,13.70
2022-10-22T16:45:50.053Z,13.65
2022-10-22T16:48:18.170Z,13.60
2022-10-22T16:50:47.913Z,13.56
2022-10-22T16:53:32.184Z,13.51
2022-10-22T16:55:58.812Z,13.49
2022-10-22T16:58:39.233Z,13.46
2022-10-22T17:01:08.925Z,13.45
2022-10-22T17:03:56.968Z,13.40
2022-10-22T17:06:26.857Z,13.36
2022-10-22T17:08:53.720Z,13.32
2022-10-22T17:11:24.402Z,13.27
2022-10-22T17:13:53.422Z,13.24
2022-10-22T17:16:24.887Z,13.20
2022-10-22T17:18:59.553Z,13.15
2022-10-22T17:21:37.663Z,13.13
2022-10-22T17:24:27.388Z,13.09
2022-10-22T17:26:56.357Z,13.05
2022-10-22T17:29:41.899Z,12.99
2022-10-22T17:32:08.462Z,12.96
2022-10-22T17:34:39.474Z,12.91
2022-10-22T17:37:16.320Z,12.90
2022-10-22T17:39:58.540Z,12.85
2022-10-22T17:42:32.265Z,12.79
2022-10-22T17:44:59.620Z,12.76
2022-10-22T17:47:28.702Z,12.72
2022-10-22T17:49:56.808Z,12.69
2022-10-22T17:53:05.491Z,12.66
2022-10-22T17:58:59.742Z,12.61
2022-10-22T18:01:53.933Z,12.60
2022-10-22T18:04:34.721Z,12.59
2022-10-22T18:07:17.124Z,12.57
2022-10-22T18:09:50.459Z,12.54
2022-10-22T18:12:18.170Z,12.52
2022-10-22T18:15:02.000Z,12.51
2022-10-22T18:17:35.836Z,12.48
2022-10-22T18:20:16.232Z,12.48
2022-10-22T18:22:46.234Z,12.47
2022-10-22T18:25:13.159Z,12.46
2022-10-22T18:27:46.004Z,12.45
2022-10-22T18:30:19.731Z,12.43
2022-10-22T18:32:46.261Z,12.42
2022-10-22T18:35:12.656Z,12.38
2022-10-22T18:37:40.150Z,12.36
2022-10-22T18:40:08.834Z,12.34
2022-10-22T18:42:39.765Z,12.33
2022-10-22T18:45:20.640Z,12.29
2022-10-22T18:48:05.615Z,12.27
2022-10-22T18:50:38.253Z,12.26
2022-10-22T18:53:04.828Z,12.21
2022-10-22T18:55:31.684Z,12.21
2022-10-22T18:58:01.199Z,12.17
2022-10-22T19:00:27.751Z,12.15
2022-10-22T19:02:54.884Z,12.12
2022-10-22T19:05:21.721Z,12.12
2022-10-22T19:07:50.633Z,12.09
2022-10-22T19:10:18.475Z,12.07
2022-10-22T20:59:56.710Z,11.21
2022-10-22T21:02:34.348Z,11.23
2022-10-22T21:05:00.778Z,11.25
2022-10-22T21:07:45.133Z,11.24
2022-10-22T21:10:11.524Z,11.25
2022-10-22T21:12:42.333Z,11.25
2022-10-22T21:15:12.500Z,11.25
2022-10-22T21:17:41.285Z,11.25
2022-10-22T21:20:22.406Z,11.28
2022-10-22T21:23:08.601Z,11.27
2022-10-22T21:25:38.492Z,11.28
2022-10-22T21:28:13.379Z,11.28
2022-10-22T21:30:52.868Z,11.29
2022-10-22T21:33:26.263Z,11.29
2022-10-22T21:35:54.408Z,11.31
2022-10-22T21:38:25.850Z,11.30
2022-10-22T21:40:52.602Z,11.29
2022-10-22T21:43:19.560Z,11.29
2022-10-22T21:45:45.911Z,11.31
2022-10-22T21:48:13.795Z,11.31
2022-10-22T21:50:44.358Z,11.32
2022-10-22T21:53:12.088Z,11.32
2022-10-22T21:55:41.043Z,11.34
2022-10-22T21:58:08.002Z,11.35
2022-10-22T22:00:35.545Z,11.35
2022-10-22T22:03:02.112Z,11.37
2022-10-22T22:05:30.596Z,11.37
2022-10-22T22:07:56.972Z,11.35
2022-10-22T22:10:25.224Z,11.35
2022-10-22T22:12:52.214Z,11.35
2022-10-22T22:15:23.665Z,11.36
2022-10-22T22:17:50.026Z,11.34
2022-10-22T22:20:16.508Z,11.35
2022-10-22T22:22:43.118Z,11.33
2022-10-22T22:25:16.875Z,11.34
2022-10-22T22:27:52.309Z,11.34
2022-10-22T22:30:22.761Z,11.32
2022-10-22T22:33:11.211Z,11.33
2022-10-22T22:35:41.682Z,11.33
2022-10-22T22:38:11.195Z,11.32
2022-10-22T22:40:41.260Z,11.31
2022-10-22T22:43:08.552Z,11.31
2022-10-22T22:45:35.594Z,11.32
2022-10-22T22:48:02.880Z,11.32
2022-10-22T22:50:29.508Z,11.32
2022-10-22T22:52:57.009Z,11.31
2022-10-22T22:55:23.377Z,11.32
2022-10-22T22:57:49.900Z,11.32
2022-10-22T23:00:17.524Z,11.31
2022-10-22T23:02:44.214Z,11.33
2022-10-22T23:05:18.101Z,11.34
2022-10-22T23:07:44.465Z,11.34
2022-10-22T23:10:15.071Z,11.34
2022-10-22T23:13:09.421Z,11.35
2022-10-22T23:15:39.490Z,11.37
2022-10-22T23:18:20.352Z,11.38
2022-10-22T23:20:46.706Z,11.37
2022-10-22T23:23:19.129Z,11.38
2022-10-22T23:26:05.071Z,11.36
2022-10-22T23:28:42.844Z,11.34
2022-10-22T23:31:12.997Z,11.34
2022-10-22T23:33:39.547Z,11.33
2022-10-22T23:36:08.865Z,11.32
2022-10-22T23:38:56.053Z,11.32
2022-10-22T23:41:22.441Z,11.32
2022-10-22T23:44:12.141Z,11.32
2022-10-22T23:46:39.179Z,11.31
2022-10-22T23:49:23.984Z,11.30
2022-10-22T23:52:05.629Z,11.27
2022-10-22T23:54:31.979Z,11.22
2022-10-22T23:56:58.328Z,11.20
2022-10-22T23:59:24.735Z,11.17
